Terminal Aerodrome Forecast
Issued by NWS

Home | Current Version | Previous Version | Text Only | Print | Product List | Glossary On
Versions: 1 2 3 4 5 6 7 8 9 10 11 12 13
279
FTUS45 KPIH 240520
TAFSUN
TAF
KSUN 240520Z 2406/2506 34008KT P6SM SKC
     FM241400 VRB06KT P6SM SKC
     FM241900 20009KT P6SM FEW120
     FM250400 31007KT P6SM SKC
      AMD LTD TO CLD VIS AND WIND TIL 241300=

USA.gov is the U.S. government's official web portal to all federal, state and local government web resources and services.